Montezuma, Iowa
Current Conditions -  °F | °C
As of 5:35 AM on Saturday 20 Dec 2014 (Local Time) from KGGI Reporting Station
Haze Haze  
Wind Chill: 22°   Ceiling: 400
Heat Index: 29°   Visibility: 2.5mi
Dew Point: 29°   Wind: 7mph
Humidity: 98%   Direction: 140°SE
Pressure: 30.18"   Gusts: NA
Location:  41.59°N, 92.53°W
Report Text: KGGI 201135Z AUTO 14006KT 2 1/2SM BR OVC004 M01/M02 A3018 RMK AO2 T10151018
Loading
Personal Weather Stations






























Interactive Weather Map New forecast layout! Learn more

10-Day Weather Forecast

Advertisements
Track Severe Weather on mobile